WXM80 ListenWXM80 Stop

You find our weather info also at:

UK Metoffice

WeatherCloud

Weather Underground

Northeastern Weather Network

AWEKAS

Citizen Weather Observer Program (CWOP)

HAMweather, WeatherForYou, PWS Weather


Weather Underground History page Text

Daily Summary for October 31, 2017 Units:  Both    English   Metric
« Previous Day
Next Day »
Daily Weekly Monthly Yearly Custom
  High: Low: Average:
Temperature: 59.2 °F /  15.1 °C 45.6 °F /  7.6 °C 51.6 °F /  10.9 °C
Dew Point: 43.2 °F /  6.2 °C 34.7 °F /  1.5 °C 39 °F /  3.9 °C
Humidity: 83 % 45 % 63 %
Wind Speed: 11.0 mph /  17.7 km/h - 3.3 mph /  5.3 km/h
Wind Gust: 20.7 mph /  33.3 km/h - -
Wind:- - WSW
Pressure: 30.28 in /  1025.3 hPa 29.89 in /  1012.1 hPa -
Precipitation: 0.12 in /  3.05 mm    
Historical Graphs
 
 
Tabular Data for October 31, 2017
Time Temperature Dew Point Pressure Wind Wind Speed Wind Gust Humidity Rainfall Rate (Hourly)
00:01 51.0 °F /  10.6 °C 40.0 °F /  4.4 °C 29.89 in /  1012.1 hPa SW 5.5 mph /  8.9 km/h 10.4 mph /  16.7 km/h 66 % 0.01 in /  0.25 mm
00:06 51.0 °F /  10.6 °C 39.6 °F /  4.2 °C 29.89 in /  1012.1 hPa SSW 4.1 mph /  6.6 km/h 9.2 mph /  14.8 km/h 65 % 0.01 in /  0.25 mm
00:11 51.0 °F /  10.6 °C 39.6 °F /  4.2 °C 29.90 in /  1012.4 hPa South 1.7 mph /  2.7 km/h 11.5 mph /  18.5 km/h 65 % 0.01 in /  0.25 mm
00:16 51.1 °F /  10.6 °C 39.3 °F /  4.1 °C 29.90 in /  1012.4 hPa SSW 7.2 mph /  11.6 km/h 10.4 mph /  16.7 km/h 64 % 0.01 in /  0.25 mm
00:21 51.2 °F /  10.7 °C 39.8 °F /  4.3 °C 29.90 in /  1012.4 hPa SW 6.8 mph /  10.9 km/h 9.2 mph /  14.8 km/h 65 % 0.01 in /  0.25 mm
00:27 51.3 °F /  10.7 °C 39.9 °F /  4.4 °C 29.90 in /  1012.4 hPa SW 5.3 mph /  8.5 km/h 13.8 mph /  22.2 km/h 65 % 0.01 in /  0.25 mm
00:32 51.4 °F /  10.8 °C 40.0 °F /  4.4 °C 29.91 in /  1012.8 hPa SSW 7.2 mph /  11.6 km/h 9.0 mph /  14.5 km/h 65 % 0.01 in /  0.25 mm
00:37 51.5 °F /  10.8 °C 40.1 °F /  4.5 °C 29.91 in /  1012.8 hPa WSW 4.9 mph /  7.9 km/h 11.5 mph /  18.5 km/h 65 % 0.01 in /  0.25 mm
00:42 51.6 °F /  10.9 °C 40.2 °F /  4.6 °C 29.91 in /  1012.8 hPa West 0.6 mph /  1 km/h 2.3 mph /  3.7 km/h 65 % 0.01 in /  0.25 mm
00:47 51.7 °F /  10.9 °C 40.3 °F /  4.6 °C 29.90 in /  1012.4 hPa South 5.5 mph /  8.9 km/h 11.5 mph /  18.5 km/h 65 % 0.01 in /  0.25 mm
00:52 51.7 °F /  10.9 °C 40.3 °F /  4.6 °C 29.91 in /  1012.8 hPa SSW 6.4 mph /  10.3 km/h 13.8 mph /  22.2 km/h 65 % 0.01 in /  0.25 mm
00:57 51.7 °F /  10.9 °C 40.7 °F /  4.8 °C 29.90 in /  1012.4 hPa SSW 4.9 mph /  7.9 km/h 8.0 mph /  12.9 km/h 66 % 0.01 in /  0.25 mm
01:02 51.8 °F /  11 °C 40.8 °F /  4.9 °C 29.91 in /  1012.8 hPa SW 3.5 mph /  5.6 km/h 9.2 mph /  14.8 km/h 66 % 0.01 in /  0.25 mm
01:03 51.7 °F /  10.9 °C 40.7 °F /  4.8 °C 29.90 in /  1012.4 hPa SSW 4.9 mph /  7.9 km/h 11.5 mph /  18.5 km/h 66 % 0.01 in /  0.25 mm
01:08 51.7 °F /  10.9 °C 40.7 °F /  4.8 °C 29.91 in /  1012.8 hPa SW 3.8 mph /  6.1 km/h 9.2 mph /  14.8 km/h 66 % 0.01 in /  0.25 mm
01:13 51.7 °F /  10.9 °C 41.1 °F /  5.1 °C 29.90 in /  1012.4 hPa SSW 2.0 mph /  3.2 km/h 8.1 mph /  13 km/h 67 % 0.00 in /  0 mm
01:18 51.7 °F /  10.9 °C 41.1 °F /  5.1 °C 29.91 in /  1012.8 hPa WSW 2.9 mph /  4.7 km/h 8.0 mph /  12.9 km/h 67 % 0.00 in /  0 mm
01:23 51.6 °F /  10.9 °C 41.4 °F /  5.2 °C 29.90 in /  1012.4 hPa South 5.4 mph /  8.7 km/h 11.0 mph /  17.7 km/h 68 % 0.00 in /  0 mm
01:28 51.5 °F /  10.8 °C 41.3 °F /  5.2 °C 29.90 in /  1012.4 hPa SSW 4.1 mph /  6.6 km/h 6.0 mph /  9.7 km/h 68 % 0.01 in /  0.25 mm
01:33 51.5 °F /  10.8 °C 41.3 °F /  5.2 °C 29.91 in /  1012.8 hPa SSW 1.4 mph /  2.3 km/h 3.5 mph /  5.6 km/h 68 % 0.01 in /  0.25 mm
01:38 51.5 °F /  10.8 °C 41.7 °F /  5.4 °C 29.91 in /  1012.8 hPa SE 2.5 mph /  4 km/h 5.8 mph /  9.3 km/h 69 % 0.01 in /  0.25 mm
01:43 51.4 °F /  10.8 °C 41.9 °F /  5.5 °C 29.91 in /  1012.8 hPa West 3.2 mph /  5.1 km/h 8.0 mph /  12.9 km/h 70 % 0.01 in /  0.25 mm
01:48 51.4 °F /  10.8 °C 41.9 °F /  5.5 °C 29.91 in /  1012.8 hPa WSW 1.6 mph /  2.6 km/h 6.9 mph /  11.1 km/h 70 % 0.01 in /  0.25 mm
01:53 51.3 °F /  10.7 °C 41.8 °F /  5.4 °C 29.92 in /  1013.1 hPa WNW 0.6 mph /  1 km/h 3.5 mph /  5.6 km/h 70 % 0.01 in /  0.25 mm
01:58 51.3 °F /  10.7 °C 42.2 °F /  5.7 °C 29.92 in /  1013.1 hPa SSW 3.2 mph /  5.1 km/h 3.5 mph /  5.6 km/h 71 % 0.01 in /  0.25 mm
02:03 51.2 °F /  10.7 °C 42.1 °F /  5.6 °C 29.92 in /  1013.1 hPa SSW 1.7 mph /  2.7 km/h 9.2 mph /  14.8 km/h 71 % 0.01 in /  0.25 mm
02:14 51.1 °F /  10.6 °C 42.4 °F /  5.8 °C 29.93 in /  1013.4 hPa SW 1.9 mph /  3.1 km/h 6.9 mph /  11.1 km/h 72 % 0.01 in /  0.25 mm
02:19 51.0 °F /  10.6 °C 42.3 °F /  5.7 °C 29.93 in /  1013.4 hPa SSW 3.5 mph /  5.6 km/h 6.9 mph /  11.1 km/h 72 % 0.01 in /  0.25 mm
02:24 50.9 °F /  10.5 °C 42.2 °F /  5.7 °C 29.93 in /  1013.4 hPa SW 2.0 mph /  3.2 km/h 6.9 mph /  11.1 km/h 72 % 0.01 in /  0.25 mm
02:29 50.8 °F /  10.4 °C 42.1 °F /  5.6 °C 29.94 in /  1013.8 hPa SSW 5.9 mph /  9.5 km/h 11.5 mph /  18.5 km/h 72 % 0.00 in /  0 mm
02:34 50.8 °F /  10.4 °C 42.1 °F /  5.6 °C 29.94 in /  1013.8 hPa SW 4.6 mph /  7.4 km/h 8.1 mph /  13 km/h 72 % 0.00 in /  0 mm
02:39 50.8 °F /  10.4 °C 42.5 °F /  5.8 °C 29.94 in /  1013.8 hPa SSW 3.3 mph /  5.3 km/h 5.0 mph /  8 km/h 73 % 0.01 in /  0.25 mm
02:44 50.7 °F /  10.4 °C 42.4 °F /  5.8 °C 29.94 in /  1013.8 hPa WSW 4.5 mph /  7.2 km/h 10.4 mph /  16.7 km/h 73 % 0.01 in /  0.25 mm
02:49 50.7 °F /  10.4 °C 42.4 °F /  5.8 °C 29.94 in /  1013.8 hPa SW 3.1 mph /  5 km/h 6.0 mph /  9.7 km/h 73 % 0.01 in /  0.25 mm
02:54 50.6 °F /  10.3 °C 42.3 °F /  5.7 °C 29.94 in /  1013.8 hPa WSW 3.6 mph /  5.8 km/h 7.0 mph /  11.3 km/h 73 % 0.01 in /  0.25 mm
02:59 50.6 °F /  10.3 °C 42.6 °F /  5.9 °C 29.94 in /  1013.8 hPa SSW 3.8 mph /  6.1 km/h 9.2 mph /  14.8 km/h 74 % 0.01 in /  0.25 mm
03:04 50.5 °F /  10.3 °C 42.5 °F /  5.8 °C 29.94 in /  1013.8 hPa West 3.9 mph /  6.3 km/h 6.9 mph /  11.1 km/h 74 % 0.01 in /  0.25 mm
03:19 50.4 °F /  10.2 °C 42.8 °F /  6 °C 29.95 in /  1014.1 hPa SSW 4.1 mph /  6.6 km/h 5.8 mph /  9.3 km/h 75 % 0.01 in /  0.25 mm
03:24 50.3 °F /  10.2 °C 43.0 °F /  6.1 °C 29.95 in /  1014.1 hPa West 1.7 mph /  2.7 km/h 6.9 mph /  11.1 km/h 76 % 0.01 in /  0.25 mm
03:30 50.2 °F /  10.1 °C 42.9 °F /  6.1 °C 29.95 in /  1014.1 hPa SSW 2.5 mph /  4 km/h 4.6 mph /  7.4 km/h 76 % 0.01 in /  0.25 mm
03:35 50.1 °F /  10.1 °C 42.8 °F /  6 °C 29.95 in /  1014.1 hPa West 3.1 mph /  5 km/h 8.1 mph /  13 km/h 76 % 0.01 in /  0.25 mm
03:40 50.0 °F /  10 °C 42.7 °F /  5.9 °C 29.95 in /  1014.1 hPa WSW 3.9 mph /  6.3 km/h 10.4 mph /  16.7 km/h 76 % 0.00 in /  0 mm
03:45 49.9 °F /  9.9 °C 42.6 °F /  5.9 °C 29.95 in /  1014.1 hPa WSW 4.3 mph /  6.9 km/h 9.2 mph /  14.8 km/h 76 % 0.00 in /  0 mm
03:50 49.9 °F /  9.9 °C 42.6 °F /  5.9 °C 29.96 in /  1014.4 hPa West 4.7 mph /  7.6 km/h 8.1 mph /  13 km/h 76 % 0.00 in /  0 mm
03:55 49.9 °F /  9.9 °C 42.6 °F /  5.9 °C 29.96 in /  1014.4 hPa SW 3.9 mph /  6.3 km/h 9.0 mph /  14.5 km/h 76 % 0.00 in /  0 mm
04:00 49.9 °F /  9.9 °C 43.0 °F /  6.1 °C 29.96 in /  1014.4 hPa SSW 6.2 mph /  10 km/h 11.5 mph /  18.5 km/h 77 % 0.00 in /  0 mm
04:05 49.8 °F /  9.9 °C 42.9 °F /  6.1 °C 29.96 in /  1014.4 hPa SW 1.8 mph /  2.9 km/h 8.1 mph /  13 km/h 77 % 0.01 in /  0.25 mm
04:10 49.8 °F /  9.9 °C 42.9 °F /  6.1 °C 29.96 in /  1014.4 hPa SW 6.2 mph /  10 km/h 11.5 mph /  18.5 km/h 77 % 0.01 in /  0.25 mm
04:15 49.8 °F /  9.9 °C 43.2 °F /  6.2 °C 29.97 in /  1014.8 hPa SSW 4.1 mph /  6.6 km/h 6.9 mph /  11.1 km/h 78 % 0.01 in /  0.25 mm
04:20 49.8 °F /  9.9 °C 42.9 °F /  6.1 °C 29.97 in /  1014.8 hPa SW 1.9 mph /  3.1 km/h 5.8 mph /  9.3 km/h 77 % 0.01 in /  0.25 mm
04:25 49.9 °F /  9.9 °C 43.0 °F /  6.1 °C 29.97 in /  1014.8 hPa West 3.2 mph /  5.1 km/h 5.0 mph /  8 km/h 77 % 0.01 in /  0.25 mm
04:30 49.9 °F /  9.9 °C 43.0 °F /  6.1 °C 29.97 in /  1014.8 hPa WSW 2.9 mph /  4.7 km/h 7.0 mph /  11.3 km/h 77 % 0.01 in /  0.25 mm
04:35 49.9 °F /  9.9 °C 43.0 °F /  6.1 °C 29.97 in /  1014.8 hPa West 3.4 mph /  5.5 km/h 5.8 mph /  9.3 km/h 77 % 0.01 in /  0.25 mm
04:40 49.9 °F /  9.9 °C 43.0 °F /  6.1 °C 29.97 in /  1014.8 hPa SW 1.4 mph /  2.3 km/h 4.6 mph /  7.4 km/h 77 % 0.01 in /  0.25 mm
04:46 49.9 °F /  9.9 °C 43.0 °F /  6.1 °C 29.97 in /  1014.8 hPa SW 2.0 mph /  3.2 km/h 6.0 mph /  9.7 km/h 77 % 0.00 in /  0 mm
04:51 49.8 °F /  9.9 °C 42.9 °F /  6.1 °C 29.97 in /  1014.8 hPa SW 3.0 mph /  4.8 km/h 7.0 mph /  11.3 km/h 77 % 0.00 in /  0 mm
04:56 49.8 °F /  9.9 °C 42.5 °F /  5.8 °C 29.97 in /  1014.8 hPa SW 3.0 mph /  4.8 km/h 7.0 mph /  11.3 km/h 76 % 0.00 in /  0 mm
05:01 49.7 °F /  9.8 °C 42.4 °F /  5.8 °C 29.97 in /  1014.8 hPa SW 3.0 mph /  4.8 km/h 8.0 mph /  12.9 km/h 76 % 0.01 in /  0.25 mm
05:06 49.6 °F /  9.8 °C 42.3 °F /  5.7 °C 29.97 in /  1014.8 hPa SW 2.0 mph /  3.2 km/h 8.0 mph /  12.9 km/h 76 % 0.00 in /  0 mm
05:11 49.6 °F /  9.8 °C 42.3 °F /  5.7 °C 29.98 in /  1015.1 hPa SSW 2.6 mph /  4.2 km/h 9.2 mph /  14.8 km/h 76 % 0.00 in /  0 mm
05:16 49.5 °F /  9.7 °C 42.2 °F /  5.7 °C 29.98 in /  1015.1 hPa SW 2.0 mph /  3.2 km/h 5.0 mph /  8 km/h 76 % 0.00 in /  0 mm
05:21 49.4 °F /  9.7 °C 42.1 °F /  5.6 °C 29.98 in /  1015.1 hPa SW 2.0 mph /  3.2 km/h 6.0 mph /  9.7 km/h 76 % 0.00 in /  0 mm
05:26 49.3 °F /  9.6 °C 42.4 °F /  5.8 °C 29.98 in /  1015.1 hPa WSW 1.0 mph /  1.6 km/h 6.0 mph /  9.7 km/h 77 % 0.00 in /  0 mm
05:31 49.2 °F /  9.6 °C 42.3 °F /  5.7 °C 29.98 in /  1015.1 hPa West 1.0 mph /  1.6 km/h 6.0 mph /  9.7 km/h 77 % 0.00 in /  0 mm
05:36 49.2 °F /  9.6 °C 42.3 °F /  5.7 °C 29.99 in /  1015.5 hPa SW 1.9 mph /  3.1 km/h 2.3 mph /  3.7 km/h 77 % 0.01 in /  0.25 mm
05:41 49.1 °F /  9.5 °C 42.2 °F /  5.7 °C 29.99 in /  1015.5 hPa Calm   3.0 mph /  4.8 km/h 77 % 0.00 in /  0 mm
05:46 49.0 °F /  9.4 °C 42.1 °F /  5.6 °C 29.99 in /  1015.5 hPa SW 2.0 mph /  3.2 km/h 6.0 mph /  9.7 km/h 77 % 0.00 in /  0 mm
05:51 49.0 °F /  9.4 °C 42.1 °F /  5.6 °C 29.99 in /  1015.5 hPa SW 2.0 mph /  3.2 km/h 8.0 mph /  12.9 km/h 77 % 0.00 in /  0 mm
05:56 48.8 °F /  9.3 °C 41.9 °F /  5.5 °C 29.99 in /  1015.5 hPa SW 3.0 mph /  4.8 km/h 6.0 mph /  9.7 km/h 77 % 0.00 in /  0 mm
06:01 48.8 °F /  9.3 °C 41.9 °F /  5.5 °C 29.99 in /  1015.5 hPa SSW 2.8 mph /  4.5 km/h 5.0 mph /  8 km/h 77 % 0.01 in /  0.25 mm
06:11 48.7 °F /  9.3 °C 42.1 °F /  5.6 °C 29.99 in /  1015.5 hPa SW 0.1 mph /  0.2 km/h 1.2 mph /  1.9 km/h 78 % 0.01 in /  0.25 mm
06:16 48.6 °F /  9.2 °C 42.0 °F /  5.6 °C 29.99 in /  1015.5 hPa SW 1.6 mph /  2.6 km/h 3.5 mph /  5.6 km/h 78 % 0.01 in /  0.25 mm
06:21 48.5 °F /  9.2 °C 42.0 °F /  5.6 °C 29.99 in /  1015.5 hPa Calm   1.0 mph /  1.6 km/h 78 % 0.01 in /  0.25 mm
06:26 48.4 °F /  9.1 °C 41.9 °F /  5.5 °C 30.00 in /  1015.8 hPa WSW 1.1 mph /  1.8 km/h 2.3 mph /  3.7 km/h 78 % 0.00 in /  0 mm
06:31 48.2 °F /  9 °C 42.0 °F /  5.6 °C 29.99 in /  1015.5 hPa WSW 0.2 mph /  0.3 km/h 2.0 mph /  3.2 km/h 79 % 0.00 in /  0 mm
06:36 48.1 °F /  8.9 °C 41.9 °F /  5.5 °C 30.00 in /  1015.8 hPa Calm     79 % 0.00 in /  0 mm
06:41 47.9 °F /  8.8 °C 41.7 °F /  5.4 °C 30.00 in /  1015.8 hPa Calm   3.5 mph /  5.6 km/h 79 % 0.00 in /  0 mm
06:46 47.8 °F /  8.8 °C 41.9 °F /  5.5 °C 30.00 in /  1015.8 hPa SW 0.1 mph /  0.2 km/h 2.0 mph /  3.2 km/h 80 % 0.00 in /  0 mm
06:51 47.7 °F /  8.7 °C 41.8 °F /  5.4 °C 30.00 in /  1015.8 hPa WSW 1.1 mph /  1.8 km/h 3.5 mph /  5.6 km/h 80 % 0.00 in /  0 mm
06:56 47.5 °F /  8.6 °C 41.6 °F /  5.3 °C 30.00 in /  1015.8 hPa WSW 0.9 mph /  1.4 km/h 1.2 mph /  1.9 km/h 80 % 0.00 in /  0 mm
07:01 47.4 °F /  8.6 °C 41.5 °F /  5.3 °C 30.00 in /  1015.8 hPa WSW 0.9 mph /  1.4 km/h 3.5 mph /  5.6 km/h 80 % 0.00 in /  0 mm
07:06 47.3 °F /  8.5 °C 41.8 °F /  5.4 °C 30.01 in /  1016.1 hPa Calm   1.0 mph /  1.6 km/h 81 % 0.01 in /  0.25 mm
07:11 47.2 °F /  8.4 °C 41.7 °F /  5.4 °C 30.01 in /  1016.1 hPa Calm   1.2 mph /  1.9 km/h 81 % 0.01 in /  0.25 mm
07:17 47.1 °F /  8.4 °C 41.9 °F /  5.5 °C 30.01 in /  1016.1 hPa SW 0.5 mph /  0.8 km/h 2.3 mph /  3.7 km/h 82 % 0.01 in /  0.25 mm
07:22 47.0 °F /  8.3 °C 41.8 °F /  5.4 °C 30.02 in /  1016.5 hPa Calm     82 % 0.01 in /  0.25 mm
07:27 46.9 °F /  8.3 °C 41.7 °F /  5.4 °C 30.02 in /  1016.5 hPa Calm     82 % 0.01 in /  0.25 mm
07:32 46.8 °F /  8.2 °C 41.6 °F /  5.3 °C 30.02 in /  1016.5 hPa Calm     82 % 0.01 in /  0.25 mm
07:37 46.7 °F /  8.2 °C 41.5 °F /  5.3 °C 30.02 in /  1016.5 hPa SW 1.4 mph /  2.3 km/h 2.3 mph /  3.7 km/h 82 % 0.01 in /  0.25 mm
07:42 46.5 °F /  8.1 °C 41.3 °F /  5.2 °C 30.03 in /  1016.8 hPa Calm   1.2 mph /  1.9 km/h 82 % 0.01 in /  0.25 mm
07:47 46.4 °F /  8 °C 41.2 °F /  5.1 °C 30.03 in /  1016.8 hPa Calm   1.2 mph /  1.9 km/h 82 % 0.01 in /  0.25 mm
07:52 46.3 °F /  7.9 °C 41.4 °F /  5.2 °C 30.03 in /  1016.8 hPa West 2.3 mph /  3.7 km/h 4.0 mph /  6.4 km/h 83 % 0.01 in /  0.25 mm
07:57 46.2 °F /  7.9 °C 41.3 °F /  5.2 °C 30.03 in /  1016.8 hPa WSW 1.8 mph /  2.9 km/h 3.5 mph /  5.6 km/h 83 % 0.01 in /  0.25 mm
08:02 46.2 °F /  7.9 °C 41.3 °F /  5.2 °C 30.04 in /  1017.2 hPa WSW 1.8 mph /  2.9 km/h 3.5 mph /  5.6 km/h 83 % 0.01 in /  0.25 mm
08:07 46.3 °F /  7.9 °C 41.4 °F /  5.2 °C 30.03 in /  1016.8 hPa WSW 0.2 mph /  0.3 km/h 2.0 mph /  3.2 km/h 83 % 0.00 in /  0 mm
08:12 46.3 °F /  7.9 °C 41.4 °F /  5.2 °C 30.04 in /  1017.2 hPa WNW 0.2 mph /  0.3 km/h 3.5 mph /  5.6 km/h 83 % 0.00 in /  0 mm
08:17 46.5 °F /  8.1 °C 41.6 °F /  5.3 °C 30.04 in /  1017.2 hPa WSW 3.5 mph /  5.6 km/h 9.2 mph /  14.8 km/h 83 % 0.00 in /  0 mm
08:22 46.7 °F /  8.2 °C 40.9 °F /  4.9 °C 30.04 in /  1017.2 hPa WSW 2.3 mph /  3.7 km/h 8.1 mph /  13 km/h 80 % 0.00 in /  0 mm
08:27 47.0 °F /  8.3 °C 40.5 °F /  4.7 °C 30.04 in /  1017.2 hPa West 0.7 mph /  1.1 km/h 5.8 mph /  9.3 km/h 78 % 0.00 in /  0 mm
08:33 47.4 °F /  8.6 °C 40.6 °F /  4.8 °C 30.05 in /  1017.5 hPa West 4.4 mph /  7.1 km/h 11.5 mph /  18.5 km/h 77 % 0.00 in /  0 mm
08:38 47.9 °F /  8.8 °C 40.7 °F /  4.8 °C 30.05 in /  1017.5 hPa SW 2.0 mph /  3.2 km/h 6.9 mph /  11.1 km/h 76 % 0.00 in /  0 mm
08:43 48.3 °F /  9.1 °C 41.1 °F /  5.1 °C 30.05 in /  1017.5 hPa WSW 2.0 mph /  3.2 km/h 6.9 mph /  11.1 km/h 76 % 0.01 in /  0.25 mm
08:48 48.6 °F /  9.2 °C 41.4 °F /  5.2 °C 30.05 in /  1017.5 hPa WSW 4.7 mph /  7.6 km/h 6.9 mph /  11.1 km/h 76 % 0.01 in /  0.25 mm
08:53 48.9 °F /  9.4 °C 41.7 °F /  5.4 °C 30.05 in /  1017.5 hPa SW 5.7 mph /  9.2 km/h 9.2 mph /  14.8 km/h 76 % 0.01 in /  0.25 mm
08:58 49.2 °F /  9.6 °C 40.9 °F /  4.9 °C 30.05 in /  1017.5 hPa SSW 4.4 mph /  7.1 km/h 6.9 mph /  11.1 km/h 73 % 0.01 in /  0.25 mm
09:03 49.5 °F /  9.7 °C 41.2 °F /  5.1 °C 30.05 in /  1017.5 hPa SW 2.4 mph /  3.9 km/h 5.8 mph /  9.3 km/h 73 % 0.01 in /  0.25 mm
09:08 49.6 °F /  9.8 °C 41.7 °F /  5.4 °C 30.05 in /  1017.5 hPa West 3.8 mph /  6.1 km/h 5.8 mph /  9.3 km/h 74 % 0.01 in /  0.25 mm
09:13 49.8 °F /  9.9 °C 41.1 °F /  5.1 °C 30.06 in /  1017.8 hPa SW 3.5 mph /  5.6 km/h 5.8 mph /  9.3 km/h 72 % 0.01 in /  0.25 mm
09:18 50.1 °F /  10.1 °C 41.1 °F /  5.1 °C 30.06 in /  1017.8 hPa SSW 4.4 mph /  7.1 km/h 8.0 mph /  12.9 km/h 71 % 0.01 in /  0.25 mm
09:23 50.3 °F /  10.2 °C 41.3 °F /  5.2 °C 30.06 in /  1017.8 hPa SSW 4.4 mph /  7.1 km/h 8.1 mph /  13 km/h 71 % 0.01 in /  0.25 mm
09:28 50.6 °F /  10.3 °C 41.2 °F /  5.1 °C 30.06 in /  1017.8 hPa SW 4.2 mph /  6.8 km/h 5.0 mph /  8 km/h 70 % 0.01 in /  0.25 mm
09:33 51.2 °F /  10.7 °C 41.4 °F /  5.2 °C 30.06 in /  1017.8 hPa SW 3.3 mph /  5.3 km/h 6.9 mph /  11.1 km/h 69 % 0.01 in /  0.25 mm
09:38 51.8 °F /  11 °C 41.2 °F /  5.1 °C 30.06 in /  1017.8 hPa SW 3.6 mph /  5.8 km/h 6.9 mph /  11.1 km/h 67 % 0.01 in /  0.25 mm
09:43 52.5 °F /  11.4 °C 41.5 °F /  5.3 °C 30.06 in /  1017.8 hPa WSW 4.8 mph /  7.7 km/h 8.1 mph /  13 km/h 66 % 0.00 in /  0 mm
09:49 52.9 °F /  11.6 °C 41.0 °F /  5 °C 30.06 in /  1017.8 hPa SSW 4.5 mph /  7.2 km/h 6.9 mph /  11.1 km/h 64 % 0.00 in /  0 mm
09:54 53.3 °F /  11.8 °C 41.0 °F /  5 °C 30.06 in /  1017.8 hPa SW 3.3 mph /  5.3 km/h 8.1 mph /  13 km/h 63 % 0.00 in /  0 mm
09:59 53.5 °F /  11.9 °C 41.2 °F /  5.1 °C 30.06 in /  1017.8 hPa WSW 5.8 mph /  9.3 km/h 8.1 mph /  13 km/h 63 % 0.00 in /  0 mm
10:04 53.6 °F /  12 °C 41.3 °F /  5.2 °C 30.06 in /  1017.8 hPa West 2.5 mph /  4 km/h 4.6 mph /  7.4 km/h 63 % 0.00 in /  0 mm
10:09 53.5 °F /  11.9 °C 39.9 °F /  4.4 °C 30.06 in /  1017.8 hPa West 2.1 mph /  3.4 km/h 6.9 mph /  11.1 km/h 60 % 0.00 in /  0 mm
10:14 53.7 °F /  12.1 °C 40.6 °F /  4.8 °C 30.06 in /  1017.8 hPa West 3.4 mph /  5.5 km/h 6.9 mph /  11.1 km/h 61 % 0.00 in /  0 mm
10:19 53.9 °F /  12.2 °C 39.9 °F /  4.4 °C 30.06 in /  1017.8 hPa WNW 7.7 mph /  12.4 km/h 12.7 mph /  20.4 km/h 59 % 0.00 in /  0 mm
10:24 54.0 °F /  12.2 °C 40.0 °F /  4.4 °C 30.06 in /  1017.8 hPa WNW 4.0 mph /  6.4 km/h 10.0 mph /  16.1 km/h 59 % 0.00 in /  0 mm
10:29 54.0 °F /  12.2 °C 39.1 °F /  3.9 °C 30.06 in /  1017.8 hPa WSW 7.2 mph /  11.6 km/h 11.5 mph /  18.5 km/h 57 % 0.00 in /  0 mm
10:34 54.0 °F /  12.2 °C 39.5 °F /  4.2 °C 30.06 in /  1017.8 hPa WNW 9.2 mph /  14.8 km/h 17.3 mph /  27.8 km/h 58 % 0.00 in /  0 mm
10:39 54.0 °F /  12.2 °C 38.6 °F /  3.7 °C 30.07 in /  1018.2 hPa WNW 3.4 mph /  5.5 km/h 10.4 mph /  16.7 km/h 56 % 0.00 in /  0 mm
10:44 54.2 °F /  12.3 °C 39.7 °F /  4.3 °C 30.07 in /  1018.2 hPa SSW 6.7 mph /  10.8 km/h 15.0 mph /  24.1 km/h 58 % 0.01 in /  0.25 mm
10:49 54.4 °F /  12.4 °C 39.9 °F /  4.4 °C 30.07 in /  1018.2 hPa SW 4.9 mph /  7.9 km/h 11.5 mph /  18.5 km/h 58 % 0.01 in /  0.25 mm
10:54 54.7 °F /  12.6 °C 39.8 °F /  4.3 °C 30.07 in /  1018.2 hPa WSW 7.5 mph /  12.1 km/h 20.7 mph /  33.3 km/h 57 % 0.01 in /  0.25 mm
10:59 55.0 °F /  12.8 °C 40.0 °F /  4.4 °C 30.06 in /  1017.8 hPa SW 4.0 mph /  6.4 km/h 6.9 mph /  11.1 km/h 57 % 0.01 in /  0.25 mm
11:05 55.1 °F /  12.8 °C 38.3 °F /  3.5 °C 30.06 in /  1017.8 hPa WNW 8.5 mph /  13.7 km/h 16.1 mph /  25.9 km/h 53 % 0.01 in /  0.25 mm
11:10 55.0 °F /  12.8 °C 36.7 °F /  2.6 °C 30.07 in /  1018.2 hPa WSW 4.7 mph /  7.6 km/h 15.0 mph /  24.1 km/h 50 % 0.01 in /  0.25 mm
11:15 55.2 °F /  12.9 °C 38.4 °F /  3.6 °C 30.07 in /  1018.2 hPa SSW 5.9 mph /  9.5 km/h 10.4 mph /  16.7 km/h 53 % 0.01 in /  0.25 mm
11:20 55.3 °F /  12.9 °C 37.5 °F /  3.1 °C 30.07 in /  1018.2 hPa West 4.6 mph /  7.4 km/h 12.7 mph /  20.4 km/h 51 % 0.01 in /  0.25 mm
11:25 55.3 °F /  12.9 °C 37.0 °F /  2.8 °C 30.07 in /  1018.2 hPa West 11.0 mph /  17.7 km/h 17.3 mph /  27.8 km/h 50 % 0.01 in /  0.25 mm
11:30 55.2 °F /  12.9 °C 37.4 °F /  3 °C 30.05 in /  1017.5 hPa SSW 5.6 mph /  9 km/h 12.7 mph /  20.4 km/h 51 % 0.02 in /  0.51 mm
11:35 55.1 °F /  12.8 °C 38.3 °F /  3.5 °C 30.07 in /  1018.2 hPa WNW 4.0 mph /  6.4 km/h 8.0 mph /  12.9 km/h 53 % 0.02 in /  0.51 mm
11:40 55.1 °F /  12.8 °C 37.8 °F /  3.2 °C 30.07 in /  1018.2 hPa SW 5.4 mph /  8.7 km/h 9.2 mph /  14.8 km/h 52 % 0.02 in /  0.51 mm
11:45 55.3 °F /  12.9 °C 38.4 °F /  3.6 °C 30.06 in /  1017.8 hPa WNW 6.7 mph /  10.8 km/h 12.7 mph /  20.4 km/h 53 % 0.01 in /  0.25 mm
11:50 55.6 °F /  13.1 °C 37.7 °F /  3.2 °C 30.07 in /  1018.2 hPa WSW 7.5 mph /  12.1 km/h 15.0 mph /  24.1 km/h 51 % 0.01 in /  0.25 mm
11:55 55.8 °F /  13.2 °C 37.4 °F /  3 °C 30.07 in /  1018.2 hPa WSW 8.6 mph /  13.8 km/h 16.1 mph /  25.9 km/h 50 % 0.01 in /  0.25 mm
12:00 55.9 °F /  13.3 °C 37.0 °F /  2.8 °C 30.04 in /  1017.2 hPa SW 9.0 mph /  14.5 km/h 12.7 mph /  20.4 km/h 49 % 0.01 in /  0.25 mm
12:05 56.0 °F /  13.3 °C 38.6 °F /  3.7 °C 30.06 in /  1017.8 hPa WSW 6.9 mph /  11.1 km/h 12.7 mph /  20.4 km/h 52 % 0.01 in /  0.25 mm
12:10 56.3 °F /  13.5 °C 39.4 °F /  4.1 °C 30.07 in /  1018.2 hPa NNW 5.0 mph /  8 km/h 5.8 mph /  9.3 km/h 53 % 0.01 in /  0.25 mm
12:15 56.5 °F /  13.6 °C 38.1 °F /  3.4 °C 30.07 in /  1018.2 hPa SSW 6.0 mph /  9.7 km/h 11.5 mph /  18.5 km/h 50 % 0.02 in /  0.51 mm
12:20 56.6 °F /  13.7 °C 38.7 °F /  3.7 °C 30.06 in /  1017.8 hPa WSW 5.9 mph /  9.5 km/h 13.0 mph /  20.9 km/h 51 % 0.02 in /  0.51 mm
12:22 56.6 °F /  13.7 °C 39.2 °F /  4 °C 30.06 in /  1017.8 hPa SW 6.0 mph /  9.7 km/h 12.7 mph /  20.4 km/h 52 % 0.02 in /  0.51 mm
12:27 56.5 °F /  13.6 °C 38.6 °F /  3.7 °C 30.06 in /  1017.8 hPa WNW 5.6 mph /  9 km/h 13.8 mph /  22.2 km/h 51 % 0.02 in /  0.51 mm
12:32 56.4 °F /  13.6 °C 39.0 °F /  3.9 °C 30.06 in /  1017.8 hPa WSW 5.2 mph /  8.4 km/h 9.2 mph /  14.8 km/h 52 % 0.01 in /  0.25 mm
12:37 56.3 °F /  13.5 °C 39.4 °F /  4.1 °C 30.06 in /  1017.8 hPa WSW 7.5 mph /  12.1 km/h 16.1 mph /  25.9 km/h 53 % 0.01 in /  0.25 mm
12:42 56.4 °F /  13.6 °C 39.5 °F /  4.2 °C 30.06 in /  1017.8 hPa WSW 5.4 mph /  8.7 km/h 11.5 mph /  18.5 km/h 53 % 0.01 in /  0.25 mm
12:47 56.5 °F /  13.6 °C 39.1 °F /  3.9 °C 30.06 in /  1017.8 hPa SW 4.7 mph /  7.6 km/h 7.0 mph /  11.3 km/h 52 % 0.01 in /  0.25 mm
12:52 56.7 °F /  13.7 °C 38.8 °F /  3.8 °C 30.06 in /  1017.8 hPa SW 5.1 mph /  8.2 km/h 9.2 mph /  14.8 km/h 51 % 0.01 in /  0.25 mm
12:57 56.9 °F /  13.8 °C 38.4 °F /  3.6 °C 30.06 in /  1017.8 hPa WSW 3.8 mph /  6.1 km/h 7.0 mph /  11.3 km/h 50 % 0.02 in /  0.51 mm
13:02 56.8 °F /  13.8 °C 37.8 °F /  3.2 °C 30.06 in /  1017.8 hPa WNW 7.6 mph /  12.2 km/h 14.0 mph /  22.5 km/h 49 % 0.02 in /  0.51 mm
13:07 56.6 °F /  13.7 °C 37.6 °F /  3.1 °C 30.06 in /  1017.8 hPa WNW 4.3 mph /  6.9 km/h 15.0 mph /  24.1 km/h 49 % 0.02 in /  0.51 mm
13:12 56.4 °F /  13.6 °C 38.0 °F /  3.3 °C 30.06 in /  1017.8 hPa WNW 8.7 mph /  14 km/h 11.5 mph /  18.5 km/h 50 % 0.02 in /  0.51 mm
13:18 56.3 °F /  13.5 °C 37.4 °F /  3 °C 30.05 in /  1017.5 hPa West 5.4 mph /  8.7 km/h 12.7 mph /  20.4 km/h 49 % 0.01 in /  0.25 mm
13:23 56.2 °F /  13.4 °C 38.3 °F /  3.5 °C 30.06 in /  1017.8 hPa WNW 7.0 mph /  11.3 km/h 18.4 mph /  29.6 km/h 51 % 0.01 in /  0.25 mm
13:28 56.2 °F /  13.4 °C 38.8 °F /  3.8 °C 30.05 in /  1017.5 hPa WNW 1.9 mph /  3.1 km/h 9.2 mph /  14.8 km/h 52 % 0.01 in /  0.25 mm
13:33 56.3 °F /  13.5 °C 37.9 °F /  3.3 °C 30.05 in /  1017.5 hPa West 7.4 mph /  11.9 km/h 9.2 mph /  14.8 km/h 50 % 0.01 in /  0.25 mm
13:38 56.4 °F /  13.6 °C 38.0 °F /  3.3 °C 30.06 in /  1017.8 hPa SW 6.3 mph /  10.1 km/h 11.5 mph /  18.5 km/h 50 % 0.01 in /  0.25 mm
13:43 56.8 °F /  13.8 °C 37.8 °F /  3.2 °C 30.06 in /  1017.8 hPa NW 5.7 mph /  9.2 km/h 17.3 mph /  27.8 km/h 49 % 0.01 in /  0.25 mm
13:48 57.1 °F /  13.9 °C 38.6 °F /  3.7 °C 30.06 in /  1017.8 hPa West 5.9 mph /  9.5 km/h 15.0 mph /  24.1 km/h 50 % 0.01 in /  0.25 mm
13:53 57.5 °F /  14.2 °C 38.5 °F /  3.6 °C 30.06 in /  1017.8 hPa WSW 7.2 mph /  11.6 km/h 13.8 mph /  22.2 km/h 49 % 0.01 in /  0.25 mm
13:58 57.9 °F /  14.4 °C 38.3 °F /  3.5 °C 30.06 in /  1017.8 hPa WSW 3.6 mph /  5.8 km/h 10.4 mph /  16.7 km/h 48 % 0.00 in /  0 mm
14:03 58.2 °F /  14.6 °C 38.6 °F /  3.7 °C 30.06 in /  1017.8 hPa West 5.8 mph /  9.3 km/h 8.1 mph /  13 km/h 48 % 0.00 in /  0 mm
14:08 58.6 °F /  14.8 °C 38.4 °F /  3.6 °C 30.07 in /  1018.2 hPa WNW 5.4 mph /  8.7 km/h 11.5 mph /  18.5 km/h 47 % 0.00 in /  0 mm
14:13 58.8 °F /  14.9 °C 38.6 °F /  3.7 °C 30.07 in /  1018.2 hPa West 8.1 mph /  13 km/h 11.5 mph /  18.5 km/h 47 % 0.00 in /  0 mm
14:18 59.0 °F /  15 °C 38.8 °F /  3.8 °C 30.07 in /  1018.2 hPa SW 9.9 mph /  15.9 km/h 13.8 mph /  22.2 km/h 47 % 0.00 in /  0 mm
14:23 59.1 °F /  15.1 °C 38.3 °F /  3.5 °C 30.07 in /  1018.2 hPa SSW 6.0 mph /  9.7 km/h 12.7 mph /  20.4 km/h 46 % 0.00 in /  0 mm
14:28 59.1 °F /  15.1 °C 38.3 °F /  3.5 °C 30.07 in /  1018.2 hPa WSW 9.4 mph /  15.1 km/h 10.4 mph /  16.7 km/h 46 % 0.00 in /  0 mm
14:34 59.1 °F /  15.1 °C 38.9 °F /  3.8 °C 30.07 in /  1018.2 hPa WSW 3.4 mph /  5.5 km/h 12.7 mph /  20.4 km/h 47 % 0.00 in /  0 mm
14:39 59.1 °F /  15.1 °C 37.8 °F /  3.2 °C 30.07 in /  1018.2 hPa SSW 8.0 mph /  12.9 km/h 11.5 mph /  18.5 km/h 45 % 0.00 in /  0 mm
14:44 59.2 °F /  15.1 °C 38.4 °F /  3.6 °C 30.07 in /  1018.2 hPa WSW 5.6 mph /  9 km/h 11.5 mph /  18.5 km/h 46 % 0.00 in /  0 mm
14:49 59.1 °F /  15.1 °C 38.3 °F /  3.5 °C 30.07 in /  1018.2 hPa NW 6.8 mph /  10.9 km/h 11.5 mph /  18.5 km/h 46 % 0.00 in /  0 mm
14:54 59.1 °F /  15.1 °C 38.9 °F /  3.8 °C 30.07 in /  1018.2 hPa West 7.3 mph /  11.7 km/h 11.5 mph /  18.5 km/h 47 % 0.00 in /  0 mm
14:59 59.0 °F /  15 °C 38.8 °F /  3.8 °C 30.07 in /  1018.2 hPa SW 6.5 mph /  10.5 km/h 11.5 mph /  18.5 km/h 47 % 0.00 in /  0 mm
15:04 58.8 °F /  14.9 °C 38.6 °F /  3.7 °C 30.07 in /  1018.2 hPa SW 7.5 mph /  12.1 km/h 12.7 mph /  20.4 km/h 47 % 0.00 in /  0 mm
15:09 58.6 °F /  14.8 °C 38.4 °F /  3.6 °C 30.07 in /  1018.2 hPa WNW 3.6 mph /  5.8 km/h 11.5 mph /  18.5 km/h 47 % 0.00 in /  0 mm
15:14 58.5 °F /  14.7 °C 38.9 °F /  3.8 °C 30.07 in /  1018.2 hPa WSW 5.4 mph /  8.7 km/h 6.0 mph /  9.7 km/h 48 % 0.00 in /  0 mm
15:19 58.3 °F /  14.6 °C 37.6 °F /  3.1 °C 30.08 in /  1018.5 hPa SW 2.0 mph /  3.2 km/h 8.1 mph /  13 km/h 46 % 0.00 in /  0 mm
15:24 58.1 °F /  14.5 °C 37.4 °F /  3 °C 30.08 in /  1018.5 hPa WSW 4.2 mph /  6.8 km/h 10.4 mph /  16.7 km/h 46 % 0.00 in /  0 mm
15:29 58.0 °F /  14.4 °C 37.9 °F /  3.3 °C 30.07 in /  1018.2 hPa SSW 3.2 mph /  5.1 km/h 7.0 mph /  11.3 km/h 47 % 0.00 in /  0 mm
15:34 57.8 °F /  14.3 °C 38.2 °F /  3.4 °C 30.08 in /  1018.5 hPa WNW 4.7 mph /  7.6 km/h 8.1 mph /  13 km/h 48 % 0.00 in /  0 mm
15:39 57.6 °F /  14.2 °C 37.5 °F /  3.1 °C 30.08 in /  1018.5 hPa West 6.7 mph /  10.8 km/h 9.0 mph /  14.5 km/h 47 % 0.00 in /  0 mm
15:44 57.4 °F /  14.1 °C 36.8 °F /  2.7 °C 30.08 in /  1018.5 hPa WSW 5.3 mph /  8.5 km/h 11.5 mph /  18.5 km/h 46 % 0.00 in /  0 mm
15:49 57.2 °F /  14 °C 36.6 °F /  2.6 °C 30.08 in /  1018.5 hPa SW 4.6 mph /  7.4 km/h 16.1 mph /  25.9 km/h 46 % 0.00 in /  0 mm
15:55 57.1 °F /  13.9 °C 37.0 °F /  2.8 °C 30.09 in /  1018.8 hPa West 4.5 mph /  7.2 km/h 7.0 mph /  11.3 km/h 47 % 0.00 in /  0 mm
16:00 56.9 °F /  13.8 °C 36.9 °F /  2.7 °C 30.08 in /  1018.5 hPa SSW 5.2 mph /  8.4 km/h 11.5 mph /  18.5 km/h 47 % 0.00 in /  0 mm
16:05 56.9 °F /  13.8 °C 36.9 °F /  2.7 °C 30.09 in /  1018.8 hPa SW 3.5 mph /  5.6 km/h 9.2 mph /  14.8 km/h 47 % 0.00 in /  0 mm
16:10 56.7 °F /  13.7 °C 36.1 °F /  2.3 °C 30.09 in /  1018.8 hPa West 5.6 mph /  9 km/h 11.5 mph /  18.5 km/h 46 % 0.00 in /  0 mm
16:15 56.6 °F /  13.7 °C 36.6 °F /  2.6 °C 30.09 in /  1018.8 hPa NW 1.6 mph /  2.6 km/h 4.6 mph /  7.4 km/h 47 % 0.00 in /  0 mm
16:20 56.5 °F /  13.6 °C 36.5 °F /  2.5 °C 30.09 in /  1018.8 hPa WSW 3.3 mph /  5.3 km/h 6.9 mph /  11.1 km/h 47 % 0.00 in /  0 mm
16:25 56.3 °F /  13.5 °C 35.2 °F /  1.8 °C 30.09 in /  1018.8 hPa SW 5.3 mph /  8.5 km/h 12.7 mph /  20.4 km/h 45 % 0.00 in /  0 mm
16:30 56.2 °F /  13.4 °C 35.7 °F /  2.1 °C 30.09 in /  1018.8 hPa WNW 0.6 mph /  1 km/h 9.2 mph /  14.8 km/h 46 % 0.00 in /  0 mm
16:35 56.2 °F /  13.4 °C 36.8 °F /  2.7 °C 30.10 in /  1019.2 hPa SW 5.7 mph /  9.2 km/h 10.4 mph /  16.7 km/h 48 % 0.00 in /  0 mm
16:40 56.1 °F /  13.4 °C 36.7 °F /  2.6 °C 30.10 in /  1019.2 hPa WNW 4.4 mph /  7.1 km/h 8.0 mph /  12.9 km/h 48 % 0.00 in /  0 mm
16:45 55.9 °F /  13.3 °C 35.4 °F /  1.9 °C 30.10 in /  1019.2 hPa WSW 5.5 mph /  8.9 km/h 15.0 mph /  24.1 km/h 46 % 0.00 in /  0 mm
16:50 55.8 °F /  13.2 °C 35.9 °F /  2.2 °C 30.10 in /  1019.2 hPa South 5.0 mph /  8 km/h 6.9 mph /  11.1 km/h 47 % 0.00 in /  0 mm
16:55 55.7 °F /  13.2 °C 35.8 °F /  2.1 °C 30.10 in /  1019.2 hPa SW 3.4 mph /  5.5 km/h 8.1 mph /  13 km/h 47 % 0.00 in /  0 mm
17:00 55.6 °F /  13.1 °C 35.7 °F /  2.1 °C 30.11 in /  1019.5 hPa WSW 1.3 mph /  2.1 km/h 5.8 mph /  9.3 km/h 47 % 0.00 in /  0 mm
17:05 55.5 °F /  13.1 °C 35.6 °F /  2 °C 30.11 in /  1019.5 hPa WNW 4.8 mph /  7.7 km/h 8.1 mph /  13 km/h 47 % 0.00 in /  0 mm
17:11 55.4 °F /  13 °C 36.0 °F /  2.2 °C 30.11 in /  1019.5 hPa SW 6.4 mph /  10.3 km/h 9.0 mph /  14.5 km/h 48 % 0.00 in /  0 mm
17:16 55.3 °F /  12.9 °C 35.9 °F /  2.2 °C 30.11 in /  1019.5 hPa WSW 3.0 mph /  4.8 km/h 10.0 mph /  16.1 km/h 48 % 0.00 in /  0 mm
17:21 55.1 °F /  12.8 °C 36.3 °F /  2.4 °C 30.11 in /  1019.5 hPa WSW 3.8 mph /  6.1 km/h 5.0 mph /  8 km/h 49 % 0.00 in /  0 mm
17:26 54.9 °F /  12.7 °C 35.6 °F /  2 °C 30.12 in /  1019.9 hPa WSW 2.0 mph /  3.2 km/h 15.0 mph /  24.1 km/h 48 % 0.00 in /  0 mm
17:31 54.8 °F /  12.7 °C 35.5 °F /  1.9 °C 30.12 in /  1019.9 hPa West 5.0 mph /  8 km/h 12.0 mph /  19.3 km/h 48 % 0.00 in /  0 mm
17:36 54.6 °F /  12.6 °C 34.8 °F /  1.6 °C 30.12 in /  1019.9 hPa West 6.0 mph /  9.7 km/h 13.0 mph /  20.9 km/h 47 % 0.00 in /  0 mm
17:41 54.5 °F /  12.5 °C 34.7 °F /  1.5 °C 30.13 in /  1020.2 hPa West 3.0 mph /  4.8 km/h 12.0 mph /  19.3 km/h 47 % 0.00 in /  0 mm
17:46 54.5 °F /  12.5 °C 35.7 °F /  2.1 °C 30.13 in /  1020.2 hPa West 2.0 mph /  3.2 km/h 7.0 mph /  11.3 km/h 49 % 0.00 in /  0 mm
17:51 54.4 °F /  12.4 °C 35.1 °F /  1.7 °C 30.13 in /  1020.2 hPa West 2.0 mph /  3.2 km/h 8.0 mph /  12.9 km/h 48 % 0.00 in /  0 mm
17:56 54.3 °F /  12.4 °C 36.0 °F /  2.2 °C 30.13 in /  1020.2 hPa WSW 3.0 mph /  4.8 km/h 7.0 mph /  11.3 km/h 50 % 0.00 in /  0 mm
18:01 54.2 °F /  12.3 °C 35.9 °F /  2.2 °C 30.14 in /  1020.5 hPa WSW 1.7 mph /  2.7 km/h 3.5 mph /  5.6 km/h 50 % 0.00 in /  0 mm
18:06 54.0 °F /  12.2 °C 35.8 °F /  2.1 °C 30.14 in /  1020.5 hPa Calm   7.0 mph /  11.3 km/h 50 % 0.00 in /  0 mm
18:11 53.9 °F /  12.2 °C 35.7 °F /  2.1 °C 30.14 in /  1020.5 hPa Calm   3.0 mph /  4.8 km/h 50 % 0.00 in /  0 mm
18:16 53.7 °F /  12.1 °C 36.5 °F /  2.5 °C 30.15 in /  1020.9 hPa WSW 2.0 mph /  3.2 km/h 6.0 mph /  9.7 km/h 52 % 0.00 in /  0 mm
18:21 53.5 °F /  11.9 °C 36.8 °F /  2.7 °C 30.15 in /  1020.9 hPa WSW 1.0 mph /  1.6 km/h 3.0 mph /  4.8 km/h 53 % 0.00 in /  0 mm
18:26 53.4 °F /  11.9 °C 36.7 °F /  2.6 °C 30.15 in /  1020.9 hPa SW 2.2 mph /  3.5 km/h 3.5 mph /  5.6 km/h 53 % 0.00 in /  0 mm
18:31 53.1 °F /  11.7 °C 36.4 °F /  2.4 °C 30.16 in /  1021.2 hPa Calm   3.0 mph /  4.8 km/h 53 % 0.00 in /  0 mm
18:36 52.9 °F /  11.6 °C 36.2 °F /  2.3 °C 30.16 in /  1021.2 hPa Calm   2.0 mph /  3.2 km/h 53 % 0.00 in /  0 mm
18:41 52.6 °F /  11.4 °C 35.9 °F /  2.2 °C 30.16 in /  1021.2 hPa Calm   2.3 mph /  3.7 km/h 53 % 0.00 in /  0 mm
18:46 52.4 °F /  11.3 °C 36.2 °F /  2.3 °C 30.16 in /  1021.2 hPa SW 1.0 mph /  1.6 km/h 3.0 mph /  4.8 km/h 54 % 0.00 in /  0 mm
18:51 52.1 °F /  11.2 °C 36.0 °F /  2.2 °C 30.16 in /  1021.2 hPa SW 1.0 mph /  1.6 km/h 4.0 mph /  6.4 km/h 54 % 0.00 in /  0 mm
18:56 51.9 °F /  11.1 °C 36.2 °F /  2.3 °C 30.16 in /  1021.2 hPa SW 1.0 mph /  1.6 km/h 4.0 mph /  6.4 km/h 55 % 0.00 in /  0 mm
19:01 51.6 °F /  10.9 °C 36.4 °F /  2.4 °C 30.16 in /  1021.2 hPa Calm   1.2 mph /  1.9 km/h 56 % 0.00 in /  0 mm
19:06 51.4 °F /  10.8 °C 36.2 °F /  2.3 °C 30.17 in /  1021.6 hPa SW 0.7 mph /  1.1 km/h 2.3 mph /  3.7 km/h 56 % 0.00 in /  0 mm
19:11 51.1 °F /  10.6 °C 35.9 °F /  2.2 °C 30.17 in /  1021.6 hPa West 0.6 mph /  1 km/h 2.3 mph /  3.7 km/h 56 % 0.00 in /  0 mm
19:16 50.9 °F /  10.5 °C 36.6 °F /  2.6 °C 30.17 in /  1021.6 hPa Calm   1.2 mph /  1.9 km/h 58 % 0.00 in /  0 mm
19:21 50.6 °F /  10.3 °C 36.4 °F /  2.4 °C 30.17 in /  1021.6 hPa Calm   1.2 mph /  1.9 km/h 58 % 0.00 in /  0 mm
19:26 50.5 °F /  10.3 °C 36.7 °F /  2.6 °C 30.17 in /  1021.6 hPa WSW 0.8 mph /  1.3 km/h 3.5 mph /  5.6 km/h 59 % 0.00 in /  0 mm
19:31 50.3 °F /  10.2 °C 36.5 °F /  2.5 °C 30.18 in /  1021.9 hPa WSW 0.1 mph /  0.2 km/h 1.2 mph /  1.9 km/h 59 % 0.00 in /  0 mm
19:36 50.1 °F /  10.1 °C 36.7 °F /  2.6 °C 30.18 in /  1021.9 hPa Calm     60 % 0.00 in /  0 mm
19:41 49.8 °F /  9.9 °C 36.5 °F /  2.5 °C 30.18 in /  1021.9 hPa SW 1.8 mph /  2.9 km/h 2.3 mph /  3.7 km/h 60 % 0.00 in /  0 mm
19:46 49.6 °F /  9.8 °C 36.3 °F /  2.4 °C 30.18 in /  1021.9 hPa SW 1.3 mph /  2.1 km/h 3.5 mph /  5.6 km/h 60 % 0.00 in /  0 mm
19:51 49.4 °F /  9.7 °C 36.5 °F /  2.5 °C 30.18 in /  1021.9 hPa SW 1.2 mph /  1.9 km/h 3.5 mph /  5.6 km/h 61 % 0.00 in /  0 mm
19:56 49.2 °F /  9.6 °C 36.3 °F /  2.4 °C 30.19 in /  1022.2 hPa Calm     61 % 0.00 in /  0 mm
20:01 49.0 °F /  9.4 °C 36.5 °F /  2.5 °C 30.19 in /  1022.2 hPa Calm   1.2 mph /  1.9 km/h 62 % 0.00 in /  0 mm
20:07 48.7 °F /  9.3 °C 37.1 °F /  2.8 °C 30.18 in /  1021.9 hPa Calm     64 % 0.00 in /  0 mm
20:12 48.5 °F /  9.2 °C 36.5 °F /  2.5 °C 30.19 in /  1022.2 hPa SW 0.2 mph /  0.3 km/h 1.2 mph /  1.9 km/h 63 % 0.00 in /  0 mm
20:17 48.2 °F /  9 °C 36.6 °F /  2.6 °C 30.19 in /  1022.2 hPa SW 1.1 mph /  1.8 km/h 2.3 mph /  3.7 km/h 64 % 0.00 in /  0 mm
20:22 48.0 °F /  8.9 °C 36.4 °F /  2.4 °C 30.19 in /  1022.2 hPa Calm     64 % 0.00 in /  0 mm
20:27 47.8 °F /  8.8 °C 36.2 °F /  2.3 °C 30.19 in /  1022.2 hPa SW 0.5 mph /  0.8 km/h 1.2 mph /  1.9 km/h 64 % 0.00 in /  0 mm
20:32 47.6 °F /  8.7 °C 36.0 °F /  2.2 °C 30.20 in /  1022.6 hPa Calm     64 % 0.00 in /  0 mm
20:37 47.4 °F /  8.6 °C 36.2 °F /  2.3 °C 30.20 in /  1022.6 hPa SW 1.6 mph /  2.6 km/h 3.5 mph /  5.6 km/h 65 % 0.00 in /  0 mm
20:42 47.2 °F /  8.4 °C 36.0 °F /  2.2 °C 30.20 in /  1022.6 hPa SW 0.1 mph /  0.2 km/h 2.3 mph /  3.7 km/h 65 % 0.00 in /  0 mm
20:47 47.0 °F /  8.3 °C 36.2 °F /  2.3 °C 30.21 in /  1022.9 hPa SW 1.0 mph /  1.6 km/h 2.3 mph /  3.7 km/h 66 % 0.00 in /  0 mm
20:52 46.9 °F /  8.3 °C 36.5 °F /  2.5 °C 30.21 in /  1022.9 hPa SW 0.2 mph /  0.3 km/h 3.5 mph /  5.6 km/h 67 % 0.00 in /  0 mm
20:57 46.7 °F /  8.2 °C 36.7 °F /  2.6 °C 30.21 in /  1022.9 hPa SW 0.7 mph /  1.1 km/h 3.0 mph /  4.8 km/h 68 % 0.00 in /  0 mm
21:02 46.7 °F /  8.2 °C 36.7 °F /  2.6 °C 30.22 in /  1023.2 hPa SW 0.3 mph /  0.5 km/h 1.2 mph /  1.9 km/h 68 % 0.00 in /  0 mm
21:07 46.5 °F /  8.1 °C 36.5 °F /  2.5 °C 30.22 in /  1023.2 hPa SW 0.3 mph /  0.5 km/h 2.3 mph /  3.7 km/h 68 % 0.00 in /  0 mm
21:12 46.5 °F /  8.1 °C 36.9 °F /  2.7 °C 30.22 in /  1023.2 hPa SW 1.7 mph /  2.7 km/h 3.5 mph /  5.6 km/h 69 % 0.00 in /  0 mm
21:17 46.4 °F /  8 °C 37.1 °F /  2.8 °C 30.22 in /  1023.2 hPa SW 0.9 mph /  1.4 km/h 2.3 mph /  3.7 km/h 70 % 0.00 in /  0 mm
21:22 46.3 °F /  7.9 °C 36.7 °F /  2.6 °C 30.22 in /  1023.2 hPa SW 0.4 mph /  0.6 km/h 2.3 mph /  3.7 km/h 69 % 0.01 in /  0.25 mm
21:28 46.1 °F /  7.8 °C 36.9 °F /  2.7 °C 30.23 in /  1023.6 hPa WSW 0.2 mph /  0.3 km/h 1.2 mph /  1.9 km/h 70 % 0.01 in /  0.25 mm
21:33 46.0 °F /  7.8 °C 36.4 °F /  2.4 °C 30.23 in /  1023.6 hPa WSW 0.9 mph /  1.4 km/h 3.5 mph /  5.6 km/h 69 % 0.01 in /  0.25 mm
21:38 45.9 °F /  7.7 °C 36.7 °F /  2.6 °C 30.23 in /  1023.6 hPa WSW 0.2 mph /  0.3 km/h 2.3 mph /  3.7 km/h 70 % 0.01 in /  0.25 mm
21:43 45.9 °F /  7.7 °C 36.7 °F /  2.6 °C 30.23 in /  1023.6 hPa WSW 1.9 mph /  3.1 km/h 3.5 mph /  5.6 km/h 70 % 0.01 in /  0.25 mm
21:48 45.8 °F /  7.7 °C 36.6 °F /  2.6 °C 30.24 in /  1023.9 hPa WSW 1.0 mph /  1.6 km/h 3.5 mph /  5.6 km/h 70 % 0.01 in /  0.25 mm
21:49 45.8 °F /  7.7 °C 36.6 °F /  2.6 °C 30.24 in /  1023.9 hPa Calm   1.2 mph /  1.9 km/h 70 % 0.01 in /  0.25 mm
21:54 45.7 °F /  7.6 °C 36.5 °F /  2.5 °C 30.24 in /  1023.9 hPa WSW 1.6 mph /  2.6 km/h 2.3 mph /  3.7 km/h 70 % 0.01 in /  0.25 mm
21:59 45.6 °F /  7.6 °C 36.4 °F /  2.4 °C 30.24 in /  1023.9 hPa WSW 0.5 mph /  0.8 km/h 1.2 mph /  1.9 km/h 70 % 0.01 in /  0.25 mm
22:05 45.6 °F /  7.6 °C 36.7 °F /  2.6 °C 30.24 in /  1023.9 hPa WSW 1.3 mph /  2.1 km/h 3.5 mph /  5.6 km/h 71 % 0.01 in /  0.25 mm
22:10 45.7 °F /  7.6 °C 36.8 °F /  2.7 °C 30.25 in /  1024.3 hPa WSW 0.5 mph /  0.8 km/h 2.3 mph /  3.7 km/h 71 % 0.01 in /  0.25 mm
22:15 45.7 °F /  7.6 °C 37.2 °F /  2.9 °C 30.25 in /  1024.3 hPa WNW 1.2 mph /  1.9 km/h 3.5 mph /  5.6 km/h 72 % 0.01 in /  0.25 mm
22:20 45.6 °F /  7.6 °C 36.7 °F /  2.6 °C 30.25 in /  1024.3 hPa NW 2.2 mph /  3.5 km/h 5.8 mph /  9.3 km/h 71 % 0.00 in /  0 mm
22:25 45.8 °F /  7.7 °C 36.2 °F /  2.3 °C 30.25 in /  1024.3 hPa West 4.0 mph /  6.4 km/h 9.2 mph /  14.8 km/h 69 % 0.00 in /  0 mm
22:30 46.1 °F /  7.8 °C 35.7 °F /  2.1 °C 30.26 in /  1024.6 hPa WSW 3.1 mph /  5 km/h 6.9 mph /  11.1 km/h 67 % 0.00 in /  0 mm
22:35 46.6 °F /  8.1 °C 35.8 °F /  2.1 °C 30.26 in /  1024.6 hPa SW 3.3 mph /  5.3 km/h 5.8 mph /  9.3 km/h 66 % 0.00 in /  0 mm
22:40 46.9 °F /  8.3 °C 36.1 °F /  2.3 °C 30.27 in /  1024.9 hPa WNW 0.9 mph /  1.4 km/h 3.0 mph /  4.8 km/h 66 % 0.00 in /  0 mm
22:45 47.2 °F /  8.4 °C 36.0 °F /  2.2 °C 30.26 in /  1024.6 hPa West 3.3 mph /  5.3 km/h 5.8 mph /  9.3 km/h 65 % 0.00 in /  0 mm
22:50 47.6 °F /  8.7 °C 36.4 °F /  2.4 °C 30.26 in /  1024.6 hPa West 4.0 mph /  6.4 km/h 8.1 mph /  13 km/h 65 % 0.00 in /  0 mm
22:55 47.8 °F /  8.8 °C 36.2 °F /  2.3 °C 30.26 in /  1024.6 hPa West 5.7 mph /  9.2 km/h 11.5 mph /  18.5 km/h 64 % 0.00 in /  0 mm
23:00 48.0 °F /  8.9 °C 36.0 °F /  2.2 °C 30.27 in /  1024.9 hPa WSW 3.4 mph /  5.5 km/h 5.8 mph /  9.3 km/h 63 % 0.00 in /  0 mm
23:05 48.2 °F /  9 °C 36.2 °F /  2.3 °C 30.26 in /  1024.6 hPa WSW 5.0 mph /  8 km/h 8.1 mph /  13 km/h 63 % 0.00 in /  0 mm
23:10 48.4 °F /  9.1 °C 36.4 °F /  2.4 °C 30.26 in /  1024.6 hPa West 3.9 mph /  6.3 km/h 8.1 mph /  13 km/h 63 % 0.00 in /  0 mm
23:16 48.5 °F /  9.2 °C 36.1 °F /  2.3 °C 30.27 in /  1024.9 hPa WSW 1.7 mph /  2.7 km/h 8.1 mph /  13 km/h 62 % 0.00 in /  0 mm
23:21 48.5 °F /  9.2 °C 36.5 °F /  2.5 °C 30.27 in /  1024.9 hPa WSW 0.2 mph /  0.3 km/h 2.3 mph /  3.7 km/h 63 % 0.00 in /  0 mm
23:23 48.5 °F /  9.2 °C 36.5 °F /  2.5 °C 30.27 in /  1024.9 hPa SW 2.5 mph /  4 km/h 4.6 mph /  7.4 km/h 63 % 0.00 in /  0 mm
23:27 48.5 °F /  9.2 °C 36.5 °F /  2.5 °C 30.27 in /  1024.9 hPa West 3.4 mph /  5.5 km/h 4.6 mph /  7.4 km/h 63 % 0.00 in /  0 mm
23:28 48.5 °F /  9.2 °C 36.5 °F /  2.5 °C 30.27 in /  1024.9 hPa WSW 5.0 mph /  8 km/h 6.9 mph /  11.1 km/h 63 % 0.00 in /  0 mm
23:29 48.5 °F /  9.2 °C 36.5 °F /  2.5 °C 30.03 in /  1016.8 hPa West 3.4 mph /  5.5 km/h 8.1 mph /  13 km/h 63 % 0.00 in /  0 mm
23:33 48.5 °F /  9.2 °C 36.5 °F /  2.5 °C 30.27 in /  1024.9 hPa SW 3.2 mph /  5.1 km/h 6.0 mph /  9.7 km/h 63 % 0.00 in /  0 mm
23:38 48.5 °F /  9.2 °C 36.5 °F /  2.5 °C 30.27 in /  1024.9 hPa SSW 2.2 mph /  3.5 km/h 4.0 mph /  6.4 km/h 63 % 0.00 in /  0 mm
23:43 48.5 °F /  9.2 °C 36.5 °F /  2.5 °C 30.27 in /  1024.9 hPa NW 3.9 mph /  6.3 km/h 9.2 mph /  14.8 km/h 63 % 0.00 in /  0 mm
23:48 48.4 °F /  9.1 °C 36.4 °F /  2.4 °C 30.28 in /  1025.3 hPa WSW 0.4 mph /  0.6 km/h 2.3 mph /  3.7 km/h 63 % 0.00 in /  0 mm
23:53 48.4 °F /  9.1 °C 36.4 °F /  2.4 °C 30.28 in /  1025.3 hPa WSW 3.1 mph /  5 km/h 6.9 mph /  11.1 km/h 63 % 0.00 in /  0 mm
23:58 48.3 °F /  9.1 °C 36.3 °F /  2.4 °C 30.28 in /  1025.3 hPa West 1.3 mph /  2.1 km/h 7.0 mph /  11.3 km/h 63 % 0.00 in /  0 mm
Crab Meadow Weather
Compliments of Weather Underground - 3 mb

Script developed by  Jim McMurry - jmcmurry@mwt.net Adapted for the template by  Wim van der Kuil - Leuven-Template.eu

Astronomy: One year on Pluto is equal to 248 Earth years.